Time;durP1;ratioP1;P1;durP2;ratioP2;P2;SDS_P1;SDS_P2;PMS_P1;PMS_P2;Temp;Humidity;BMP_temperature;BMP_pressure;BME280_temperature;BME280_humidity;BME280_pressure;Samples;Min_cycle;Max_cycle;Signal;HPM_P1;HPM_P2
2022/08/11 00:02:55;;;;;;;5.07;2.35;;;;;;;20.61;66.08;101138.41;8357665;28;20036;-51
2022/08/11 00:07:01;;;;;;;4.15;3.00;;;;;;;20.74;66.03;101132.25;8356400;28;20045;-51
2022/08/11 00:11:06;;;;;;;4.50;2.88;;;;;;;20.34;68.04;101132.75;8355664;28;20061;-51
2022/08/11 00:15:08;;;;;;;4.70;2.70;;;;;;;20.30;68.62;101136.88;8358015;28;20035;-51
2022/08/11 00:19:09;;;;;;;5.68;2.95;;;;;;;20.00;70.18;101129.66;8346136;28;20045;-54
2022/08/11 00:23:15;;;;;;;8.68;3.08;;;;;;;19.49;71.54;101132.13;8346895;28;20093;-51
2022/08/11 00:27:15;;;;;;;3.45;3.05;;;;;;;19.24;72.75;101138.78;8335868;28;20065;-53
2022/08/11 00:31:25;;;;;;;3.28;2.97;;;;;;;19.81;70.27;101124.66;8375613;28;20040;-54
2022/08/11 00:35:30;;;;;;;4.88;3.03;;;;;;;20.02;69.78;101127.53;8360851;28;20040;-53
2022/08/11 00:39:33;;;;;;;6.60;3.13;;;;;;;19.84;70.24;101129.78;8360894;28;20481;-50
2022/08/11 00:43:46;;;;;;;8.98;3.30;;;;;;;19.46;72.37;101117.94;8360910;28;20037;-53
2022/08/11 00:48:00;;;;;;;7.50;3.67;;;;;;;19.18;73.41;101123.06;8360439;28;20037;-53
2022/08/11 00:52:40;;;;;;;5.97;3.17;;;;;;;19.48;71.29;101124.06;8360527;28;20478;-51
2022/08/11 00:57:14;;;;;;;4.70;3.25;;;;;;;18.94;74.69;101120.47;8359834;28;20041;-51
2022/08/11 01:06:08;;;;;;;5.70;3.60;;;;;;;18.62;75.42;101125.25;8319729;28;20466;-51
2022/08/11 01:10:39;;;;;;;8.35;3.50;;;;;;;18.68;74.00;101125.41;8319482;28;20064;-49
2022/08/11 01:24:09;;;;;;;8.40;3.80;;;;;;;18.37;75.75;101129.09;8417044;27;20087;-50
2022/08/11 01:28:49;;;;;;;7.75;3.75;;;;;;;18.27;76.90;101126.53;8366454;28;20123;-49
2022/08/11 01:33:48;;;;;;;4.50;3.50;;;;;;;18.24;77.35;101126.88;8359910;28;20041;-49
2022/08/11 01:48:02;;;;;;;4.30;3.53;;;;;;;18.40;76.33;101121.41;8385495;28;20040;-52
2022/08/11 01:52:23;;;;;;;8.00;3.92;;;;;;;18.18;77.79;101124.88;8381487;28;20048;-49
2022/08/11 01:56:39;;;;;;;6.03;4.40;;;;;;;17.63;80.11;101116.53;8377067;28;20056;-49
2022/08/11 02:00:53;;;;;;;8.57;4.25;;;;;;;17.65;80.20;101127.31;8401297;28;20036;-50
2022/08/11 02:05:02;;;;;;;4.75;4.28;;;;;;;17.25;81.83;101132.72;8408780;28;20032;-50
2022/08/11 02:09:19;;;;;;;7.95;4.55;;;;;;;17.44;81.13;101132.41;8417806;28;20345;-52
2022/08/11 02:18:00;;;;;;;7.00;4.10;;;;;;;17.49;80.11;101124.56;8405184;27;20404;-49
2022/08/11 02:23:40;;;;;;;7.85;4.00;;;;;;;17.39;80.70;101123.84;8373378;27;20575;-50
2022/08/11 02:27:13;;;;;;;7.55;4.15;;;;;;;17.54;79.79;101122.19;8382759;28;20041;-53
2022/08/11 02:36:10;;;;;;;5.10;4.60;;;;;;;17.49;80.84;101130.03;8322852;28;20405;-49
2022/08/11 02:40:21;;;;;;;5.07;4.57;;;;;;;17.35;81.69;101123.34;8309141;28;20034;-48
2022/08/11 02:44:50;;;;;;;12.73;5.05;;;;;;;17.25;82.41;101127.25;8320350;28;20057;-48
2022/08/11 02:49:59;;;;;;;12.98;5.25;;;;;;;17.01;83.83;101125.31;8312965;28;20033;-49
2022/08/11 02:53:35;;;;;;;5.57;5.03;;;;;;;17.15;83.03;101132.03;8311996;28;20402;-51
2022/08/11 02:57:42;;;;;;;9.48;5.50;;;;;;;17.05;83.43;101125.84;8292277;28;20041;-50
2022/08/11 03:01:51;;;;;;;13.07;5.57;;;;;;;16.96;83.67;101127.69;8319423;28;20088;-50
2022/08/11 03:06:08;;;;;;;5.68;5.18;;;;;;;16.98;82.80;101136.59;8318622;28;20481;-52
2022/08/11 03:10:39;;;;;;;7.72;5.30;;;;;;;16.92;81.90;101137.25;8318127;28;20064;-49
2022/08/11 03:19:56;;;;;;;7.85;4.95;;;;;;;16.82;82.94;101135.69;8317964;28;20467;-50
2022/08/11 03:24:05;;;;;;;7.15;5.18;;;;;;;16.80;82.50;101135.84;8317667;28;20461;-49
2022/08/11 03:28:29;;;;;;;6.57;5.10;;;;;;;16.66;83.30;101130.16;8318316;28;20046;-52
2022/08/11 03:34:10;;;;;;;8.82;5.07;;;;;;;16.74;82.78;101132.94;8299877;28;20402;-48
2022/08/11 03:37:50;;;;;;;7.75;5.15;;;;;;;16.51;83.14;101138.13;8317750;28;20042;-50
2022/08/11 03:42:19;;;;;;;6.60;5.10;;;;;;;16.51;83.86;101132.66;8313973;28;20130;-49
2022/08/11 03:46:44;;;;;;;8.32;5.25;;;;;;;16.45;83.60;101129.72;8299169;28;20038;-50
2022/08/11 03:51:04;;;;;;;;;;;;;;;16.36;84.21;101133.41;8261888;28;20061;-48
2022/08/11 04:00:15;;;;;;;6.72;5.22;;;;;;;16.34;83.79;101132.69;8308865;28;20212;-48
2022/08/11 04:04:55;;;;;;;11.98;5.90;;;;;;;16.21;84.53;101135.88;8281806;28;20498;-49
2022/08/11 04:09:35;;;;;;;12.35;6.22;;;;;;;16.01;85.29;101137.09;8283764;28;20046;-50
2022/08/11 04:15:58;;;;;;;8.98;6.35;;;;;;;16.10;84.81;101133.41;8279101;28;20417;-49
2022/08/11 04:18:48;;;;;;;9.93;6.05;;;;;;;15.96;84.69;101138.59;8287584;28;20069;-50
2022/08/11 04:28:16;;;;;;;10.43;6.97;;;;;;;15.90;84.11;101136.53;8308112;27;20427;-50
2022/08/11 04:32:47;;;;;;;9.27;6.45;;;;;;;16.02;83.47;101135.25;8309488;28;20041;-53
2022/08/11 04:37:42;;;;;;;11.45;6.50;;;;;;;16.01;83.77;101139.00;8316415;28;20034;-50
2022/08/11 04:43:27;;;;;;;9.00;6.35;;;;;;;16.16;83.05;101137.41;8302996;28;20095;-50
2022/08/11 04:46:57;;;;;;;13.18;7.10;;;;;;;16.26;82.76;101139.00;8310949;28;20495;-50
2022/08/11 05:01:43;;;;;;;10.80;6.50;;;;;;;16.59;81.71;101150.97;8306357;28;20088;-53
2022/08/11 05:06:03;;;;;;;7.53;6.10;;;;;;;16.74;80.63;101161.09;8317809;28;20268;-52
2022/08/11 05:10:36;;;;;;;8.15;6.18;;;;;;;16.81;79.85;101162.13;8315072;28;20405;-50
2022/08/11 05:56:18;;;;;;;6.00;5.35;;;;;;;18.80;72.92;101187.00;8390717;28;20052;-50
2022/08/11 05:59:12;;;;;;;8.85;5.40;;;;;;;18.91;71.08;101186.59;8399764;27;20101;-50
2022/08/11 06:03:29;;;;;;;6.82;5.30;;;;;;;18.98;70.79;101179.38;8398402;28;20507;-51
2022/08/11 06:07:31;;;;;;;6.30;5.32;;;;;;;19.14;70.79;101176.56;8383265;28;20033;-53
2022/08/11 06:11:37;;;;;;;7.68;5.57;;;;;;;19.52;68.86;101179.44;8388893;28;20047;-52
2022/08/11 06:15:48;;;;;;;9.90;5.30;;;;;;;19.92;68.19;101176.38;8393405;27;20040;-52
2022/08/11 06:19:51;;;;;;;8.05;4.75;;;;;;;20.07;67.70;101175.34;8408993;27;20543;-53
2022/08/11 06:23:52;;;;;;;7.60;5.00;;;;;;;20.48;66.60;101173.94;8389728;27;20433;-51
2022/08/11 06:27:55;;;;;;;10.70;4.55;;;;;;;20.93;65.92;101183.91;8386233;28;20036;-52
2022/08/11 06:31:59;;;;;;;9.32;4.80;;;;;;;21.00;64.77;101179.34;8393330;27;20460;-51
2022/08/11 06:36:10;;;;;;;7.28;4.28;;;;;;;21.13;63.82;101179.53;8386299;27;20505;-54
2022/08/11 06:40:26;;;;;;;10.73;4.70;;;;;;;21.20;63.92;101177.72;8383395;28;20047;-54
2022/08/11 06:44:31;;;;;;;8.48;4.20;;;;;;;21.57;63.75;101180.25;8383263;27;20451;-54
2022/08/11 06:48:32;;;;;;;10.77;3.90;;;;;;;22.29;62.73;101180.97;8393409;27;20528;-50
2022/08/11 06:52:36;;;;;;;4.63;3.83;;;;;;;22.52;60.87;101200.88;8361551;28;20134;-53
2022/08/11 07:01:10;;;;;;;8.65;4.20;;;;;;;22.51;60.88;101183.47;8390046;28;20044;-52
2022/08/11 07:05:28;;;;;;;9.38;4.03;;;;;;;23.04;60.00;101188.25;8370864;28;20043;-53
2022/08/11 07:15:40;;;;;;;14.23;3.42;;;;;;;23.95;57.87;101178.59;8368344;28;20111;-52
2022/08/11 07:28:56;;;;;;;6.88;2.92;;;;;;;25.06;53.82;101176.53;8362523;28;20045;-51
2022/08/11 07:32:11;;;;;;;16.85;3.40;;;;;;;25.18;53.45;101177.53;8378274;28;20673;-51
2022/08/11 07:36:14;;;;;;;9.48;2.40;;;;;;;25.54;53.08;101175.06;8386689;28;20488;-53
2022/08/11 07:40:21;;;;;;;7.60;2.95;;;;;;;25.85;52.02;101172.28;8388856;28;20521;-52
2022/08/11 07:44:28;;;;;;;9.65;3.33;;;;;;;26.22;51.09;101171.38;8389633;28;20032;-50
2022/08/11 07:53:09;;;;;;;5.45;2.67;;;;;;;26.69;50.02;101156.84;8388793;28;20021;-51
2022/08/11 08:18:54;;;;;;;6.07;2.70;;;;;;;27.38;48.17;101163.97;8389264;28;20071;-50
2022/08/11 08:22:59;;;;;;;11.15;3.30;;;;;;;27.55;47.64;101162.22;8389513;28;20044;-53
2022/08/11 08:26:59;;;;;;;7.00;2.95;;;;;;;27.82;47.44;101157.97;8358993;28;20060;-51
2022/08/11 08:31:00;;;;;;;7.57;2.78;;;;;;;27.94;47.66;101154.19;8388826;28;20036;-51
2022/08/11 08:35:03;;;;;;;6.97;2.55;;;;;;;28.20;47.12;101156.50;8388899;28;20032;-52
2022/08/11 08:39:04;;;;;;;5.10;2.42;;;;;;;28.46;47.33;101155.22;8388395;28;20041;-50
2022/08/11 08:43:09;;;;;;;3.93;2.30;;;;;;;28.71;46.01;101153.03;8388868;28;20036;-54
2022/08/11 08:47:14;;;;;;;6.05;2.50;;;;;;;28.57;46.13;101162.69;8389058;28;20680;-52
2022/08/11 08:51:47;;;;;;;8.35;2.75;;;;;;;29.40;45.53;101152.88;8387879;28;20489;-51
2022/08/11 08:55:38;;;;;;;8.40;2.95;;;;;;;28.89;45.47;101150.09;8388369;28;20032;-53
2022/08/11 08:59:43;;;;;;;6.97;2.70;;;;;;;28.98;45.04;101159.78;8388037;28;20048;-54
2022/08/11 09:03:43;;;;;;;4.35;2.40;;;;;;;29.27;45.58;101152.34;8379114;28;20044;-52
2022/08/11 09:07:46;;;;;;;8.48;2.60;;;;;;;29.42;45.10;101150.69;8388276;28;20035;-54
2022/08/11 09:11:49;;;;;;;6.15;2.50;;;;;;;29.78;44.08;101155.91;8387174;28;20098;-54
2022/08/11 09:15:49;;;;;;;3.80;2.25;;;;;;;29.94;43.42;101152.28;8385379;28;20082;-53
2022/08/11 09:19:57;;;;;;;6.15;2.47;;;;;;;29.95;43.28;101156.75;8386333;28;20082;-55
2022/08/11 09:28:21;;;;;;;18.08;3.03;;;;;;;30.19;42.84;101147.16;8386092;28;20075;-50
2022/08/11 09:32:22;;;;;;;8.02;2.47;;;;;;;30.29;42.95;101147.34;8386442;28;20059;-51
2022/08/11 09:40:47;;;;;;;5.03;2.10;;;;;;;30.48;42.14;101155.41;8369673;28;20127;-52
2022/08/11 09:44:48;;;;;;;4.65;2.10;;;;;;;31.06;41.40;101148.22;8386576;28;20124;-54
2022/08/11 09:48:49;;;;;;;2.58;2.38;;;;;;;31.52;40.15;101146.84;8386643;28;20082;-54
2022/08/11 09:52:50;;;;;;;5.93;2.22;;;;;;;32.24;38.99;101134.16;8385168;28;20075;-52
2022/08/11 09:58:26;;;;;;;6.75;2.25;;;;;;;33.33;38.09;101135.13;8372876;28;20029;-52
2022/08/11 10:01:25;;;;;;;10.48;2.13;;;;;;;35.37;33.71;101133.38;8351056;28;20033;-54
2022/08/11 10:09:55;;;;;;;2.55;1.60;;;;;;;35.72;34.08;101135.16;8385341;28;19912;-54
2022/08/11 10:19:20;;;;;;;4.03;1.55;;;;;;;35.45;32.64;101129.97;8353200;28;20033;-54
2022/08/11 10:27:02;;;;;;;4.63;2.05;;;;;;;35.98;32.33;101127.41;8358123;28;20424;-54
2022/08/11 10:35:26;;;;;;;4.27;1.90;;;;;;;36.94;30.62;101109.28;8358746;28;20786;-53
2022/08/11 10:39:28;;;;;;;3.17;1.90;;;;;;;36.69;30.78;101105.88;8356808;28;20041;-53
2022/08/11 10:43:28;;;;;;;4.22;1.70;;;;;;;36.57;31.30;101102.63;8359281;28;20029;-55
2022/08/11 10:47:38;;;;;;;2.88;1.60;;;;;;;37.01;30.72;101104.09;8358926;28;20033;-54
2022/08/11 11:00:23;;;;;;;1.67;1.50;;;;;;;37.27;31.77;101085.75;8391217;28;20035;-53
2022/08/11 11:04:32;;;;;;;4.78;1.60;;;;;;;38.14;30.69;101083.28;8392270;28;20513;-53
2022/08/11 11:08:52;;;;;;;3.65;1.70;;;;;;;36.65;31.42;101077.44;8391240;28;20143;-51
2022/08/11 11:18:29;;;;;;;4.05;1.73;;;;;;;37.11;31.45;101072.94;8390267;28;20127;-54
2022/08/11 11:21:53;;;;;;;3.08;1.77;;;;;;;35.90;32.51;101069.72;8390394;28;20397;-50
2022/08/11 11:26:08;;;;;;;4.85;1.85;;;;;;;36.66;31.84;101062.22;8388794;28;20028;-54
2022/08/11 11:30:11;;;;;;;4.00;1.95;;;;;;;36.37;32.19;101058.59;8389206;28;20081;-54
2022/08/11 11:34:40;;;;;;;9.73;2.22;;;;;;;37.21;31.65;101053.09;8390040;28;20024;-52
2022/08/11 11:38:40;;;;;;;2.70;1.70;;;;;;;37.86;31.12;101039.09;8388983;28;20504;-52
2022/08/11 11:42:44;;;;;;;3.05;2.03;;;;;;;37.43;31.30;101039.22;8389655;28;20170;-53
2022/08/11 11:46:44;;;;;;;;;;;;;;;36.95;31.75;101048.91;8355658;28;20036;-54
2022/08/11 11:50:45;;;;;;;5.80;1.50;;;;;;;36.98;31.92;101034.19;8355615;28;19924;-52
2022/08/11 11:54:49;;;;;;;3.58;1.80;;;;;;;37.52;31.49;101025.25;8357162;28;20802;-52
2022/08/11 12:03:11;;;;;;;2.72;2.00;;;;;;;36.20;32.00;101024.38;8358686;28;20472;-50
2022/08/11 12:08:14;;;;;;;2.45;1.73;;;;;;;35.10;32.47;101011.16;8368782;28;20040;-53
2022/08/11 12:15:53;;;;;;;3.05;2.00;;;;;;;32.63;35.17;100998.34;8357557;28;20039;-50
2022/08/11 12:19:53;;;;;;;4.97;1.83;;;;;;;32.35;35.45;100984.72;8348487;28;20037;-53
2022/08/11 12:28:18;;;;;;;4.07;2.15;;;;;;;32.15;36.24;100976.22;8359278;28;20041;-51
2022/08/11 12:32:20;;;;;;;5.88;2.00;;;;;;;32.05;35.90;100979.78;8339454;28;20102;-53
2022/08/11 12:36:21;;;;;;;4.07;2.22;;;;;;;31.90;36.50;100968.47;8349455;28;20041;-54
2022/08/11 12:45:46;;;;;;;3.90;2.15;;;;;;;32.37;35.84;100948.91;8354598;28;20040;-50
2022/08/11 12:53:42;;;;;;;4.75;2.50;;;;;;;32.40;35.82;100937.19;8335166;28;20021;-55
2022/08/11 12:58:16;;;;;;;5.13;2.03;;;;;;;32.26;36.31;100941.53;8371065;28;20430;-54
2022/08/11 13:06:30;;;;;;;2.85;2.08;;;;;;;32.43;34.71;100931.03;8347684;28;20401;-55
2022/08/11 13:14:53;;;;;;;4.80;2.10;;;;;;;31.98;35.23;100939.16;8343728;28;20029;-52
2022/08/11 13:18:56;;;;;;;3.60;2.10;;;;;;;31.74;35.27;100927.50;8351918;28;20049;-51
2022/08/11 13:22:58;;;;;;;2.73;2.27;;;;;;;31.67;35.27;100920.47;8357350;28;20135;-55
2022/08/11 13:27:01;;;;;;;6.90;2.53;;;;;;;31.51;35.55;100916.72;8348064;28;20041;-52
2022/08/11 13:31:10;;;;;;;2.67;2.23;;;;;;;31.95;35.36;100908.91;8365203;28;20091;-55
2022/08/11 13:35:13;;;;;;;3.15;1.80;;;;;;;32.22;35.65;100904.03;8350593;28;20631;-53
2022/08/11 13:39:14;;;;;;;;;;;;;;;32.49;35.55;100901.06;8357131;28;20123;-55
2022/08/11 13:43:18;;;;;;;2.47;2.00;;;;;;;31.88;35.35;100905.53;8365597;28;19928;-53
2022/08/11 13:47:22;;;;;;;3.70;2.35;;;;;;;32.18;35.82;100894.50;8355852;28;20036;-55
2022/08/11 13:51:32;;;;;;;3.70;2.03;;;;;;;32.11;35.68;100882.72;8363088;28;20041;-54
2022/08/11 13:55:33;;;;;;;7.82;2.38;;;;;;;32.13;35.82;100891.66;8356593;28;20077;-54
2022/08/11 13:59:35;;;;;;;8.18;2.22;;;;;;;31.75;35.74;100894.81;8362226;28;20086;-54
2022/08/11 14:03:40;;;;;;;5.45;2.10;;;;;;;32.14;36.01;100887.78;8367432;28;20174;-51
2022/08/11 14:07:50;;;;;;;3.72;1.98;;;;;;;32.00;34.99;100886.56;8372441;28;20083;-55
2022/08/11 14:16:19;;;;;;;4.82;2.10;;;;;;;32.12;35.48;100876.00;8349968;28;20120;-55
2022/08/11 14:20:21;;;;;;;6.65;2.33;;;;;;;31.94;35.16;100860.53;8358838;28;20337;-54
2022/08/11 14:24:22;;;;;;;3.45;1.77;;;;;;;32.09;35.72;100865.34;8360684;28;20060;-54
2022/08/11 14:28:23;;;;;;;4.60;2.30;;;;;;;32.04;35.21;100860.56;8360320;28;20024;-53
2022/08/11 14:32:25;;;;;;;2.10;1.83;;;;;;;32.38;35.25;100861.00;8355159;28;20039;-54
2022/08/11 14:36:27;;;;;;;5.15;2.13;;;;;;;32.10;35.49;100855.84;8356742;28;20052;-51
2022/08/11 14:47:03;;;;;;;4.28;2.30;;;;;;;32.21;35.17;100849.16;8357007;28;20041;-53
2022/08/11 14:49:14;;;;;;;2.95;1.70;;;;;;;32.32;35.48;100845.28;8375353;28;20531;-54
2022/08/11 14:53:14;;;;;;;3.10;2.17;;;;;;;32.44;35.74;100836.69;8384204;28;20381;-51
2022/08/11 14:57:17;;;;;;;6.03;1.77;;;;;;;32.44;35.30;100831.06;8379886;28;20048;-52
2022/08/11 15:05:56;;;;;;;2.22;1.92;;;;;;;32.17;35.61;100831.25;8382921;28;20432;-54
2022/08/11 15:09:59;;;;;;;2.63;2.00;;;;;;;32.33;35.60;100820.94;8381962;28;20036;-52
2022/08/11 15:14:02;;;;;;;2.88;2.22;;;;;;;32.27;35.90;100830.44;8385828;28;20029;-54
2022/08/11 15:18:05;;;;;;;4.57;2.10;;;;;;;32.16;35.51;100818.34;8386112;28;20737;-54
2022/08/11 15:45:46;;;;;;;5.18;2.00;;;;;;;32.08;36.37;100802.13;8348291;28;19964;-52
2022/08/11 15:52:51;;;;;;;5.80;2.25;;;;;;;31.94;36.25;100789.75;8274490;28;20402;-53
2022/08/11 15:56:54;;;;;;;4.75;2.15;;;;;;;32.12;35.95;100778.06;8276349;28;20042;-52
2022/08/11 16:05:16;;;;;;;3.47;2.15;;;;;;;32.03;35.21;100768.50;8274698;28;20161;-54
2022/08/11 16:09:31;;;;;;;3.75;1.92;;;;;;;31.93;35.44;100774.06;8265782;28;20042;-55
2022/08/11 16:17:48;;;;;;;3.13;2.00;;;;;;;32.11;35.50;100754.00;8341467;27;20839;-53
2022/08/11 16:21:52;;;;;;;4.63;2.28;;;;;;;31.84;35.58;100747.75;8286818;28;20031;-52
2022/08/11 16:25:55;;;;;;;2.30;2.10;;;;;;;31.81;35.52;100753.84;8305912;28;20374;-52
2022/08/11 16:29:56;;;;;;;7.77;2.80;;;;;;;32.07;35.60;100747.25;8301558;28;20037;-54
2022/08/11 16:33:58;;;;;;;5.13;2.65;;;;;;;32.12;35.66;100744.47;8294576;28;20042;-51
2022/08/11 16:38:34;;;;;;;6.05;2.25;;;;;;;32.01;35.48;100749.19;8310367;28;20445;-53
2022/08/11 16:46:58;;;;;;;5.63;2.17;;;;;;;31.98;36.05;100754.50;8341082;28;20098;-54
2022/08/11 16:50:59;;;;;;;3.45;2.03;;;;;;;32.04;36.10;100747.78;8311743;28;20029;-54
2022/08/11 16:55:02;;;;;;;5.28;2.38;;;;;;;31.98;36.35;100740.50;8311046;28;20117;-54
2022/08/11 16:59:15;;;;;;;5.53;2.40;;;;;;;31.92;36.24;100733.22;8310074;28;20042;-53
2022/08/11 17:13:10;;;;;;;8.57;2.10;;;;;;;31.89;36.17;100734.59;8316584;28;20033;-55
2022/08/11 17:16:30;;;;;;;3.33;2.63;;;;;;;31.81;36.09;100737.06;8307056;28;20034;-54
2022/08/11 17:20:32;;;;;;;3.85;2.17;;;;;;;31.75;36.17;100721.38;8311252;28;20044;-54
2022/08/11 17:24:37;;;;;;;4.55;2.53;;;;;;;31.74;36.58;100728.06;8328916;28;20052;-54
2022/08/11 17:28:40;;;;;;;7.57;2.60;;;;;;;31.69;36.65;100722.47;8301047;28;20145;-55
2022/08/11 17:37:06;;;;;;;3.53;2.10;;;;;;;31.90;36.42;100719.50;8280586;28;20409;-55
2022/08/11 17:49:51;;;;;;;4.13;2.03;;;;;;;31.51;36.93;100731.34;8285879;28;20556;-55
2022/08/11 18:03:39;;;;;;;6.30;2.50;;;;;;;31.27;37.12;100727.28;8291161;28;20433;-55
2022/08/11 18:06:59;;;;;;;4.82;2.60;;;;;;;31.19;37.14;100727.81;8287453;28;20184;-54
